createdAt,value
2022-10-27T00:04:41.126Z,11.9
2022-10-27T00:14:41.644Z,12.1
2022-10-27T00:24:41.767Z,12.2
2022-10-27T00:34:42.114Z,12.3
2022-10-27T00:44:42.368Z,12.4
2022-10-27T00:54:42.914Z,12.5
2022-10-27T01:04:43.588Z,12.4
2022-10-27T01:14:44.611Z,12.4
2022-10-27T01:24:44.873Z,12.4
2022-10-27T01:34:45.538Z,12.4
2022-10-27T01:44:46.036Z,12.5
2022-10-27T01:54:46.507Z,12.5
2022-10-27T02:04:47.521Z,12.6
2022-10-27T02:14:48.163Z,12.6
2022-10-27T02:24:48.402Z,12.7
2022-10-27T02:34:48.768Z,12.7
2022-10-27T02:54:50.388Z,12.4
2022-10-27T03:04:51.244Z,12.2
2022-10-27T03:14:52.381Z,11.9
2022-10-27T03:24:53.038Z,11.8
2022-10-27T03:34:53.188Z,11.6
2022-10-27T03:44:54.199Z,11.4
2022-10-27T03:54:55.015Z,11.3
2022-10-27T04:04:55.527Z,11.1
2022-10-27T04:14:55.691Z,10.9
2022-10-27T04:24:56.075Z,10.8
2022-10-27T04:34:56.602Z,10.9
2022-10-27T04:44:56.901Z,10.8
2022-10-27T04:54:57.337Z,10.6
2022-10-27T05:04:57.492Z,10.6
2022-10-27T05:14:58.313Z,10.5
2022-10-27T05:34:59.509Z,10.3
2022-10-27T05:45:00.622Z,10.3
2022-10-27T05:55:01.190Z,10.2
2022-10-27T06:05:01.830Z,10.1
2022-10-27T06:15:02.225Z,10.1
2022-10-27T06:25:02.566Z,10.1
2022-10-27T06:35:03.455Z,10.1
2022-10-27T06:45:04.134Z,10
2022-10-27T06:55:04.323Z,10.1
2022-10-27T07:05:05.115Z,10.1
2022-10-27T07:15:05.892Z,10.3
2022-10-27T07:25:06.287Z,10.5
2022-10-27T07:35:06.743Z,10.8
2022-10-27T07:45:07.073Z,11.4
2022-10-27T07:55:07.706Z,12.1
2022-10-27T08:05:08.168Z,12.7
2022-10-27T08:25:10.030Z,13.6
2022-10-27T08:35:09.815Z,14
2022-10-27T08:45:09.984Z,14.4
2022-10-27T08:55:10.247Z,15.1
2022-10-27T09:05:12.588Z,16
2022-10-27T09:25:12.497Z,17.3
2022-10-27T09:35:14.356Z,18.1
2022-10-27T09:45:13.692Z,18.6
2022-10-27T09:55:13.990Z,18.9
2022-10-27T10:05:14.104Z,19.2
2022-10-27T10:15:14.457Z,20.5
2022-10-27T10:25:15.276Z,21.2
2022-10-27T10:35:15.569Z,21.5
2022-10-27T10:45:16.085Z,21.5
2022-10-27T10:55:16.765Z,21.7
2022-10-27T11:05:17.766Z,21.9
2022-10-27T11:15:18.202Z,22.1
2022-10-27T11:25:18.717Z,22.2
2022-10-27T11:35:19.828Z,22.4
2022-10-27T11:45:20.617Z,22.5
2022-10-27T11:55:20.792Z,22.5
2022-10-27T12:05:21.065Z,22.8
2022-10-27T12:35:23.179Z,22.9
2022-10-27T12:45:24.061Z,23.6
2022-10-27T13:05:25.378Z,23.1
2022-10-27T13:15:25.806Z,22.9
2022-10-27T13:55:28.052Z,22.4
2022-10-27T14:05:28.379Z,22.6
2022-10-27T14:25:29.234Z,22.3
2022-10-27T14:35:29.727Z,22
2022-10-27T14:45:29.855Z,21.8
2022-10-27T14:55:30.652Z,21.6
2022-10-27T15:15:31.635Z,21.1
2022-10-27T15:25:32.022Z,20.9
2022-10-27T15:35:32.480Z,20.7
2022-10-27T15:45:33.006Z,20.4
2022-10-27T15:55:33.920Z,20.2
2022-10-27T16:05:34.266Z,20.2
2022-10-27T16:15:34.810Z,20.2
2022-10-27T16:25:35.809Z,20
2022-10-27T16:35:36.198Z,19.8
2022-10-27T16:45:37.091Z,19.7
2022-10-27T16:55:37.475Z,19.6
2022-10-27T17:05:38.131Z,19.4
2022-10-27T17:15:38.390Z,19.5
2022-10-27T17:25:38.889Z,19.3
2022-10-27T17:35:39.552Z,19.1
2022-10-27T17:45:40.411Z,19.1
2022-10-27T17:55:41.280Z,19.1
2022-10-27T18:05:41.884Z,19.1
2022-10-27T18:15:42.374Z,19.2
2022-10-27T18:25:43.061Z,19.1
2022-10-27T18:35:43.160Z,19.1
2022-10-27T18:45:43.974Z,19.1
2022-10-27T18:55:44.554Z,19.1
2022-10-27T19:15:45.619Z,18.9
2022-10-27T19:25:48.708Z,18.7
2022-10-27T19:35:46.457Z,18.4
2022-10-27T19:45:46.542Z,18.1
2022-10-27T19:55:46.864Z,18
2022-10-27T20:05:47.722Z,17.9
2022-10-27T20:15:47.799Z,17.7
2022-10-27T20:25:48.724Z,17.7
2022-10-27T20:35:48.709Z,17.4
2022-10-27T20:45:49.180Z,16.9
2022-10-27T20:55:50.078Z,16.6
2022-10-27T21:05:50.371Z,16.4
2022-10-27T21:15:50.973Z,16.1
2022-10-27T21:25:51.740Z,15.9
2022-10-27T21:35:52.389Z,15.7
2022-10-27T21:45:52.965Z,15.6
2022-10-27T22:15:55.053Z,15.4
2022-10-27T22:25:55.227Z,15.6
2022-10-27T22:35:56.214Z,16
2022-10-27T22:45:56.396Z,16.5
2022-10-27T22:55:56.764Z,16.5
2022-10-27T22:56:18.715Z,16.5
2022-10-27T23:06:02.723Z,16.7
2022-10-27T23:16:03.336Z,16.7
2022-10-27T23:26:04.274Z,16.5
2022-10-27T23:36:04.921Z,16.3
2022-10-27T23:46:05.286Z,16.1
2022-10-27T23:56:06.058Z,15.9
